»·PEaware :: N43XS KYKM-CYAZ

N43XS :: KYKM-CYAZ

FLIGHT INFORMATION

Flight Status: Arrived
Operator: Privately registered:
United States
More flights under this callsign
Pilot: Maurice C. (12314)
Aircraft: BEECH AIRCRAFT A90-E90 KING AIR
(BE9L)
More flights by this aircraft type
Origin: KYKM Yakima Air Term/Mcallister
United States
Destination: CYAZ Tofino
Canada
More flights between these airports :: More routes between these airports
Route: +
File this flight plan on PilotEdge
Remarks:
Altitude:
(Current/Filed)
12,500ft
Speed:
(Current/Filed)
200kts
Departed: 31-Oct-17 11:08 AM
Arrived: 31-Oct-17 12:34 PM
Distance/Time
Traveled:
259nm/1:26
Distance/Time
To Go:
Arrived

Flight Plot

Page will automatically refresh every two minutes.

Flight plan parsing failed; only flown route is shown


Map Options




Map Legend


Flown Route
Filed Route
Departure Airport
Arrival Airport
Navaid (VOR, NDB)
Fix

Horizontal Profiles

Position Reports

Time Latitude Longitude Heading Altitude Ground
Speed
31-Oct-17 10:52 46.569695 -120.537997 270 1072ft 0kts
31-Oct-17 10:53 46.569695 -120.537997 270 1072ft 0kts
31-Oct-17 10:54 46.569695 -120.537997 270 1072ft 0kts
31-Oct-17 10:55 46.569695 -120.537997 270 1072ft 0kts
31-Oct-17 10:58 46.569694 -120.537990 270 1072ft 0kts
31-Oct-17 10:59 46.569694 -120.537990 270 1072ft 0kts
31-Oct-17 11:00 46.569694 -120.537990 270 1072ft 0kts
31-Oct-17 11:01 46.569694 -120.537990 270 1072ft 0kts
31-Oct-17 11:02 46.569694 -120.537990 269 1072ft 0kts
31-Oct-17 11:03 46.569694 -120.537990 269 1072ft 0kts
31-Oct-17 11:04 46.569694 -120.537990 269 1072ft 0kts
31-Oct-17 11:05 46.569694 -120.537990 269 1072ft 0kts
31-Oct-17 11:06 46.569694 -120.537990 269 1072ft 0kts
31-Oct-17 11:07 46.569694 -120.537990 269 1072ft 0kts
31-Oct-17 11:08 46.569661 -120.538137 234 1072ft 3kts
31-Oct-17 11:09 46.568664 -120.538330 181 1072ft 0kts
31-Oct-17 11:10 46.567343 -120.533998 110 1072ft 29kts
31-Oct-17 11:11 46.566485 -120.531466 171 1072ft 0kts
31-Oct-17 11:12 46.565746 -120.531686 237 1073ft 15kts
31-Oct-17 11:13 46.572031 -120.561052 290 1460ft 134kts
31-Oct-17 11:14 46.593900 -120.604778 339 3173ft 144kts
31-Oct-17 11:15 46.612688 -120.657022 266 4040ft 192kts
31-Oct-17 11:16 46.609179 -120.735795 267 4838ft 192kts
31-Oct-17 11:17 46.605818 -120.810421 267 5617ft 181kts
31-Oct-17 11:18 46.602586 -120.882532 268 6407ft 176kts
31-Oct-17 11:19 46.599216 -120.953152 268 7198ft 174kts
31-Oct-17 11:20 46.595899 -121.023092 267 7993ft 172kts
31-Oct-17 11:21 46.592730 -121.090764 267 8770ft 170kts
31-Oct-17 11:22 46.589383 -121.158729 267 9564ft 168kts
31-Oct-17 11:23 46.586116 -121.227270 269 10365ft 171kts
31-Oct-17 11:24 46.582702 -121.304839 267 10082ft 211kts
31-Oct-17 11:25 46.578804 -121.394044 268 9408ft 226kts
31-Oct-17 11:26 46.574949 -121.486047 268 8716ft 230kts
31-Oct-17 11:27 46.571106 -121.576702 268 8488ft 217kts
31-Oct-17 11:28 46.567349 -121.662311 267 8490ft 212kts
31-Oct-17 11:29 46.567487 -121.746091 275 8490ft 209kts
31-Oct-17 11:30 46.571809 -121.829462 275 8490ft 206kts
31-Oct-17 11:31 46.582545 -121.908761 288 8490ft 204kts
31-Oct-17 11:32 46.598261 -121.988269 288 8434ft 207kts
31-Oct-17 11:33 46.614255 -122.068437 288 8379ft 205kts
31-Oct-17 11:34 46.637400 -122.143714 299 8380ft 203kts
31-Oct-17 11:35 46.663851 -122.216313 300 8381ft 203kts
31-Oct-17 11:36 46.690249 -122.288819 300 8379ft 203kts
31-Oct-17 11:37 46.716792 -122.361419 300 8379ft 203kts
31-Oct-17 11:38 46.743394 -122.434023 300 8381ft 203kts
31-Oct-17 11:39 46.770052 -122.506460 300 8381ft 203kts
31-Oct-17 11:40 46.796694 -122.579222 299 8381ft 203kts
31-Oct-17 11:41 46.823004 -122.651215 299 8381ft 203kts
31-Oct-17 11:42 46.849661 -122.723403 299 8380ft 203kts
31-Oct-17 11:43 46.880813 -122.789907 324 8383ft 199kts
31-Oct-17 11:44 46.923811 -122.841468 321 8383ft 207kts
31-Oct-17 11:45 46.968678 -122.898585 321 8381ft 218kts
31-Oct-17 11:46 47.014246 -122.957210 321 8379ft 219kts
31-Oct-17 11:47 47.060099 -123.016193 319 8380ft 219kts
31-Oct-17 11:48 47.102939 -123.071549 320 8381ft 220kts
31-Oct-17 11:49 47.143516 -123.124078 320 8382ft 220kts
31-Oct-17 11:50 47.189441 -123.183634 320 8381ft 220kts
31-Oct-17 11:51 47.235088 -123.243013 320 8381ft 220kts
31-Oct-17 11:52 47.280846 -123.302627 320 8382ft 219kts
31-Oct-17 11:53 47.326587 -123.362409 320 8381ft 220kts
31-Oct-17 11:54 47.372126 -123.422028 320 8381ft 220kts
31-Oct-17 11:55 47.417751 -123.481891 319 8382ft 220kts
31-Oct-17 11:56 47.463392 -123.541982 320 8380ft 220kts
31-Oct-17 11:57 47.508766 -123.601849 320 8418ft 215kts
31-Oct-17 11:58 47.550040 -123.656494 320 8495ft 202kts
31-Oct-17 11:59 47.591824 -123.711843 320 8502ft 201kts
31-Oct-17 12:00 47.633437 -123.767082 320 8506ft 201kts
31-Oct-17 12:01 47.675045 -123.822439 319 8508ft 201kts
31-Oct-17 12:02 47.716516 -123.877801 319 8507ft 201kts
31-Oct-17 12:03 47.758032 -123.933320 319 8504ft 201kts
31-Oct-17 12:04 47.799482 -123.988870 319 8502ft 201kts
31-Oct-17 12:05 47.841014 -124.044653 319 8499ft 201kts
31-Oct-17 12:06 47.882295 -124.100225 319 8497ft 200kts
31-Oct-17 12:07 47.923726 -124.156124 319 8497ft 200kts
31-Oct-17 12:08 47.965065 -124.212025 319 8497ft 200kts
31-Oct-17 12:09 48.006308 -124.267924 319 8496ft 200kts
31-Oct-17 12:10 48.047428 -124.323782 319 8496ft 200kts
31-Oct-17 12:11 48.088765 -124.380061 319 8496ft 200kts
31-Oct-17 12:12 48.120824 -124.423792 319 8501ft 201kts
31-Oct-17 12:13 48.162164 -124.480299 319 8501ft 201kts
31-Oct-17 12:14 48.203409 -124.536786 319 8500ft 201kts
31-Oct-17 12:15 48.244649 -124.593412 319 8500ft 201kts
31-Oct-17 12:16 48.285821 -124.650080 319 8500ft 201kts
31-Oct-17 12:17 48.326552 -124.706270 319 8501ft 201kts
31-Oct-17 12:18 48.367725 -124.763195 319 8501ft 201kts
31-Oct-17 12:19 48.408921 -124.820289 319 8500ft 201kts
31-Oct-17 12:20 48.449906 -124.877260 319 8500ft 200kts
31-Oct-17 12:21 48.490781 -124.934155 319 8500ft 200kts
31-Oct-17 12:22 48.531556 -124.991032 319 8499ft 199kts
31-Oct-17 12:23 48.572029 -125.047635 319 8499ft 198kts
31-Oct-17 12:24 48.612410 -125.104227 319 8499ft 198kts
31-Oct-17 12:25 48.653689 -125.162193 319 8076ft 210kts
31-Oct-17 12:26 48.697261 -125.223556 319 7375ft 217kts
31-Oct-17 12:27 48.741641 -125.286240 319 6669ft 216kts
31-Oct-17 12:28 48.782304 -125.343851 319 5927ft 190kts
31-Oct-17 12:29 48.820422 -125.397923 319 5214ft 187kts
31-Oct-17 12:30 48.858562 -125.452149 318 4502ft 183kts
31-Oct-17 12:31 48.892772 -125.500912 318 3757ft 156kts
31-Oct-17 12:32 48.923014 -125.544095 318 3027ft 141kts
31-Oct-17 12:33 48.949895 -125.582562 317 2488ft 117kts
31-Oct-17 12:34 48.972789 -125.615393 317 2537ft 150kts
31-Oct-17 12:35 49.005497 -125.662187 316 2372ft 166kts
31-Oct-17 12:36 49.030416 -125.699106 303 1771ft 96kts
31-Oct-17 12:37 49.047934 -125.741825 298 1502ft 117kts
31-Oct-17 12:38 49.066211 -125.778719 350 562ft 104kts
31-Oct-17 12:39 49.079996 -125.782084 232 84ft 5kts

Navigation Log

Ident Type
Flight plan parsing failed, navigation log unavailable